AirNav   Pilot Hours Calculator
 
 1070 users online  

65WA Wissler's Airport
Tenino, Washington, USA

GOING TO TENINO?


FAA INFORMATION EFFECTIVE 02 JANUARY 2020

Location

FAA Identifier: 65WA
Lat/Long: 46-50-25.3600N 122-54-58.4810W
46-50.422667N 122-54.974683W
46.8403778,-122.9162447
(estimated)
Elevation: 255 ft. / 78 m (estimated)
Variation: 20E (1985)
From city: 3 miles W of TENINO, WA
Time zone: UTC -8 (UTC -7 during Daylight Saving Time)
Zip code: 98589

Airport Operations

Airport use: Private use. Permission required prior to landing
Control tower: no
ARTCC: SEATTLE CENTER
FSS: SEATTLE FLIGHT SERVICE STATION
Attendance: UNATNDD
Wind indicator: yes
Segmented circle: no

Airport Communications

WX ASOS at OLM (8 nm N): 135.725 (360-754-0781)
WX AWOS-3 at CLS (10 nm S): 118.025 (360-740-5164)

Nearby radio navigation aids

VOR radial/distance  VOR name  Freq  Var
OLMr165/7.9OLYMPIA VORTAC113.4019E
TCMr209/25.8MCCHORD VORTAC109.6015E

 
NDB name  Hdg/Dist  Freq  Var  ID
LACOMAS220/17.832816ELAC .-.. .- -.-.

Airport Services

Runway Information

Runway 6/24

Dimensions: 1300 x 100 ft. / 396 x 30 m
Surface: turf
RUNWAY 6  RUNWAY 24
Traffic pattern: leftleft
Obstructions: none3 ft. fence, 2 ft. from runway

Airport Ownership and Management from official FAA records

Ownership: Privately-owned
Owner: SUSIE WISSLER BREKHUS
16923 MELVILLE ST SE
TENINO, WA 98589
Phone 360-264-4311
Manager: SUSIE WISSLER BREKHUS
16923 MELVILLE ST SE
TENINO, WA 98589
Phone 360-264-4311

Additional Remarks

FOR CD CTC SEATTLE APCH AT 206-214-4794.

Instrument Procedures

There are no published instrument procedures at 65WA.

Some nearby airports with instrument procedures:

KOLM - Olympia Regional Airport (8 nm N)
KCLS - Chehalis-Centralia Airport (10 nm S)
KGRF - Gray Army Airfield (Joint Base Lewis-McChord) (20 nm NE)
KTDO - Ed Carlson Memorial Field - South Lewis Co Airport (22 nm S)
KTCM - McChord Field Airport (Joint Base Lewis-McChord) (25 nm NE)
 
Loc | Ops | Rwys | IFR | FBO | Links
Com | Nav | Svcs | Stats | Notes
Area around 65WA (Wissler's Airport)
 
Road maps at: MapQuest Bing Google
 
Aerial photo
No photo
 
Sectional chart

 
Airport distance calculator
Flying to Wissler's Airport? Find the distance to fly.

From to 65WA

Sunrise and sunset
Times for 29-Jan-2020
 Local
(UTC-8)
 Zulu
(UTC)
Morning civil twilight07:0815:08
Sunrise07:4115:41
Sunset17:0901:09
Evening civil twilight17:4201:42

Current date and time
Zulu (UTC)  29-Jan-2020 12:35:52
Local (UTC-8)  29-Jan-2020 04:35:52
 
METAR
KOLM 
8nm N 
291154Z AUTO 18015KT 10SM BKN040 OVC085 08/06 A3020 RMK AO2 SLP227 70028 T00830056 10089 20078 58004
KCLS 
10nm S 
291215Z AUTO 18010G16KT 10SM BKN018 OVC029 09/07 A3021 RMK AO2
KGRF 
20nm NE 
291158Z 15009KT 10SM CLR 09/09 A3019 RMK AO2A SLP228 70036 T00880086 10091 20065 58006 $
TAF
KOLM 
8nm N 
291145Z 2912/3012 19010KT P6SM OVC040 FM291500 17010KT P6SM -RA OVC040 FM291900 20012KT 5SM -RA SCT015 OVC025 FM292300 20012KT P6SM SCT010 BKN016 OVC025 FM300300 18006KT P6SM SCT020 BKN035 OVC050 FM301000 VRB03KT P6SM BKN006 OVC010
KGRF 
20nm NE 
290501Z 2905/3011 18009KT 9999 BKN020 OVC040 QNH3018INS BECMG 2912/2913 17009KT 8000 -RA BKN020 OVC030 620507 QNH3009INS BECMG 2917/2918 19012G18KT 8000 -RA BKN020 OVC030 620709 510205 QNH3005INS BECMG 2923/2924 VRB06KT 9999 NSW SCT150 QNH3015INS TX09/2920Z TN07/2906Z
NOTAMs
Click for the latest NOTAMs
NOTAMs are issued by the DoD/FAA and will open in a separate window not controlled by AirNav.

 

 
 

Would you like to see your business listed on this page?

 If your business provides an interesting product or service to pilots, flight crews, aircraft, or users of the Wissler's Airport, you should consider listing it here.  To start the listing process, click on the button below
 
Add a business
 

Other Pages about Wissler's Airport

Update a link
 
Copyright © AirNav, LLC. All rights reserved. Privacy Policy  Contact